createdAt,value
2018-03-07T00:00:56.833Z,10.05
2018-03-07T00:03:26.350Z,10.16
2018-03-07T00:05:55.618Z,10.26
2018-03-07T00:08:23.983Z,10.35
2018-03-07T00:10:52.434Z,10.41
2018-03-07T00:13:20.692Z,10.39
2018-03-07T00:15:49.763Z,10.38
2018-03-07T00:18:18.127Z,10.36
2018-03-07T00:20:46.443Z,10.37
2018-03-07T00:23:15.498Z,10.42
2018-03-07T00:25:43.804Z,10.48
2018-03-07T00:28:13.032Z,10.47
2018-03-07T00:30:41.454Z,10.50
2018-03-07T00:33:09.804Z,10.48
2018-03-07T00:35:38.253Z,10.33
2018-03-07T00:38:06.658Z,10.26
2018-03-07T00:40:35.160Z,10.30
2018-03-07T00:43:03.494Z,10.35
2018-03-07T00:45:31.848Z,10.31
2018-03-07T00:48:00.193Z,10.29
2018-03-07T00:50:28.708Z,10.17
2018-03-07T00:52:57.740Z,10.17
2018-03-07T00:55:26.103Z,10.05
2018-03-07T00:57:54.383Z,10.05
2018-03-07T01:00:24.284Z,10.07
2018-03-07T01:02:54.439Z,10.17
2018-03-07T01:05:22.710Z,10.21
2018-03-07T01:07:51.018Z,10.12
2018-03-07T01:10:19.282Z,9.94
2018-03-07T01:12:47.654Z,9.85
2018-03-07T01:15:16.099Z,9.90
2018-03-07T01:17:44.565Z,9.98
2018-03-07T01:20:13.054Z,10.03
2018-03-07T01:22:42.223Z,10.05
2018-03-07T01:25:10.658Z,10.07
2018-03-07T01:27:38.964Z,10.11
2018-03-07T01:30:07.280Z,10.07
2018-03-07T01:32:37.178Z,10.07
2018-03-07T01:35:06.298Z,10.12
2018-03-07T01:37:34.638Z,10.11
2018-03-07T01:40:03.480Z,10.01
2018-03-07T01:42:31.990Z,9.87
2018-03-07T01:45:00.390Z,9.88
2018-03-07T01:47:28.839Z,9.97
2018-03-07T01:49:57.141Z,10.00
2018-03-07T01:52:27.058Z,10.04
2018-03-07T01:54:55.475Z,10.04
2018-03-07T01:57:23.877Z,9.97
2018-03-07T01:59:52.331Z,9.87
2018-03-07T02:02:20.870Z,9.82
2018-03-07T02:04:50.174Z,9.87
2018-03-07T02:07:18.484Z,9.91
2018-03-07T02:09:47.563Z,9.93
2018-03-07T02:12:16.773Z,9.95
2018-03-07T02:14:45.800Z,9.99
2018-03-07T02:17:14.320Z,10.01
2018-03-07T02:19:42.824Z,10.02
2018-03-07T02:22:12.000Z,9.99
2018-03-07T02:24:40.390Z,9.93
2018-03-07T02:27:09.461Z,9.90
2018-03-07T02:29:38.099Z,9.85
2018-03-07T02:32:06.580Z,9.79
2018-03-07T02:34:35.018Z,9.77
2018-03-07T02:37:03.410Z,9.76
2018-03-07T02:39:31.810Z,9.79
2018-03-07T02:42:00.272Z,9.81
2018-03-07T02:44:29.454Z,9.80
2018-03-07T02:46:57.768Z,9.76
2018-03-07T02:49:26.194Z,9.68
2018-03-07T02:51:55.330Z,9.65
2018-03-07T02:54:23.785Z,9.63
2018-03-07T02:56:52.079Z,9.58
2018-03-07T02:59:21.301Z,9.54
2018-03-07T03:01:49.799Z,9.55
2018-03-07T03:04:18.216Z,9.47
2018-03-07T03:06:46.592Z,9.35
2018-03-07T03:09:17.094Z,9.32
2018-03-07T03:11:46.630Z,9.32
2018-03-07T03:14:15.040Z,9.27
2018-03-07T03:16:44.100Z,9.36
2018-03-07T03:19:12.376Z,9.28
2018-03-07T03:21:40.670Z,9.26
2018-03-07T03:24:09.713Z,9.16
2018-03-07T03:26:38.039Z,9.03
2018-03-07T03:29:06.346Z,8.90
2018-03-07T03:31:34.926Z,8.71
2018-03-07T03:34:03.574Z,8.70
2018-03-07T03:36:31.843Z,8.71
2018-03-07T03:39:01.582Z,8.82
2018-03-07T03:41:31.880Z,8.65
2018-03-07T03:44:00.145Z,8.62
2018-03-07T03:46:28.445Z,8.56
2018-03-07T03:48:56.854Z,8.52
2018-03-07T03:51:25.289Z,8.62
2018-03-07T03:53:53.611Z,8.64
2018-03-07T03:56:21.968Z,8.69
2018-03-07T03:58:50.979Z,8.67
2018-03-07T04:01:19.309Z,8.76
2018-03-07T04:03:47.668Z,8.73
2018-03-07T04:06:16.247Z,8.65
2018-03-07T04:08:44.714Z,8.60
2018-03-07T04:11:14.136Z,8.60
2018-03-07T04:13:42.644Z,8.46
2018-03-07T04:16:10.881Z,8.38
2018-03-07T04:18:39.171Z,8.38
2018-03-07T04:21:07.549Z,8.42
2018-03-07T04:23:35.833Z,8.46
2018-03-07T04:26:04.249Z,8.44
2018-03-07T04:28:33.512Z,8.49
2018-03-07T04:31:02.913Z,8.62
2018-03-07T04:33:31.201Z,8.57
2018-03-07T04:35:59.649Z,8.56
2018-03-07T04:38:27.983Z,8.58
2018-03-07T04:40:56.241Z,8.50
2018-03-07T04:43:25.414Z,8.51
2018-03-07T04:45:53.729Z,8.51
2018-03-07T04:48:22.871Z,8.53
2018-03-07T04:50:51.454Z,8.51
2018-03-07T04:53:19.724Z,8.53
2018-03-07T04:55:48.029Z,8.49
2018-03-07T04:58:16.456Z,8.45
2018-03-07T05:00:44.855Z,8.44
2018-03-07T05:03:13.159Z,8.42
2018-03-07T05:05:41.435Z,8.43
2018-03-07T05:08:09.822Z,8.39
2018-03-07T05:10:38.072Z,8.38
2018-03-07T05:13:06.360Z,8.34
2018-03-07T05:15:34.661Z,8.30
2018-03-07T05:18:02.954Z,8.28
2018-03-07T05:20:32.116Z,8.23
2018-03-07T05:23:00.634Z,8.23
2018-03-07T05:25:29.731Z,8.21
2018-03-07T05:27:58.812Z,8.17
2018-03-07T05:30:27.065Z,8.17
2018-03-07T05:32:55.859Z,8.14
2018-03-07T05:35:24.136Z,8.13
2018-03-07T05:37:52.414Z,8.14
2018-03-07T05:40:20.797Z,8.09
2018-03-07T05:42:49.048Z,8.06
2018-03-07T05:45:17.324Z,8.03
2018-03-07T05:47:45.716Z,7.97
2018-03-07T05:50:14.204Z,7.93
2018-03-07T05:52:42.511Z,7.91
2018-03-07T05:55:11.537Z,7.94
2018-03-07T05:57:39.875Z,7.86
2018-03-07T06:00:08.922Z,7.79
2018-03-07T06:02:37.341Z,7.86
2018-03-07T06:05:05.841Z,7.82
2018-03-07T06:07:34.897Z,7.81
2018-03-07T06:10:03.455Z,7.80
2018-03-07T06:12:33.300Z,7.84
2018-03-07T06:15:02.751Z,7.84
2018-03-07T06:17:31.179Z,7.85
2018-03-07T06:19:59.519Z,7.84
2018-03-07T06:22:27.811Z,7.86
2018-03-07T06:24:56.115Z,7.85
2018-03-07T06:27:24.373Z,7.86
2018-03-07T06:29:52.756Z,7.86
2018-03-07T06:32:21.031Z,7.78
2018-03-07T06:34:49.435Z,7.69
2018-03-07T06:37:18.523Z,7.72
2018-03-07T06:39:46.926Z,7.72
2018-03-07T06:42:17.129Z,7.75
2018-03-07T06:44:45.598Z,7.81
2018-03-07T06:47:13.931Z,7.83
2018-03-07T06:49:42.269Z,7.84
2018-03-07T06:52:10.690Z,7.83
2018-03-07T06:54:38.937Z,7.83
2018-03-07T06:57:08.226Z,7.92
2018-03-07T06:59:37.260Z,7.97
2018-03-07T07:02:05.590Z,8.00
2018-03-07T07:04:34.689Z,8.03
2018-03-07T07:07:03.734Z,8.12
2018-03-07T07:09:31.988Z,8.24
2018-03-07T07:12:00.286Z,8.34
2018-03-07T07:14:28.536Z,8.38
2018-03-07T07:16:57.058Z,8.43
2018-03-07T07:19:25.331Z,8.52
2018-03-07T07:21:53.683Z,8.61
2018-03-07T07:24:22.171Z,8.72
2018-03-07T07:26:50.615Z,8.81
2018-03-07T07:29:19.670Z,8.90
2018-03-07T07:31:47.970Z,8.89
2018-03-07T07:34:17.046Z,8.76
2018-03-07T07:36:45.439Z,8.74
2018-03-07T07:39:13.685Z,8.92
2018-03-07T07:41:42.192Z,9.05
2018-03-07T07:44:10.490Z,9.08
2018-03-07T07:46:39.722Z,9.23
2018-03-07T07:49:07.977Z,9.41
2018-03-07T07:51:36.983Z,9.56
2018-03-07T07:54:05.273Z,9.63
2018-03-07T07:56:33.590Z,9.68
2018-03-07T07:59:01.853Z,9.75
2018-03-07T08:01:30.175Z,9.85
2018-03-07T08:03:58.447Z,9.85
2018-03-07T08:06:27.572Z,9.81
2018-03-07T08:08:55.826Z,9.81
2018-03-07T08:11:24.392Z,9.91
2018-03-07T08:13:53.536Z,9.99
2018-03-07T08:16:21.920Z,10.12
2018-03-07T08:18:50.215Z,10.25
2018-03-07T08:21:20.078Z,10.37
2018-03-07T08:23:48.356Z,10.55
2018-03-07T08:26:16.624Z,10.71
2018-03-07T08:28:44.905Z,10.82
2018-03-07T08:31:13.318Z,10.86
2018-03-07T08:33:41.657Z,10.90
2018-03-07T08:36:10.049Z,11.01
2018-03-07T08:38:38.340Z,11.12
2018-03-07T08:41:06.624Z,11.14
2018-03-07T08:43:34.892Z,11.17
2018-03-07T08:46:03.306Z,11.22
2018-03-07T08:48:31.641Z,11.30
2018-03-07T08:51:00.091Z,11.41
2018-03-07T08:53:29.117Z,11.46
2018-03-07T08:55:57.428Z,11.58
2018-03-07T08:58:25.691Z,11.58
2018-03-07T09:00:54.023Z,11.64
2018-03-07T09:03:22.288Z,11.74
2018-03-07T09:05:51.418Z,11.87
2018-03-07T09:08:20.919Z,12.00
2018-03-07T09:10:49.232Z,12.07
2018-03-07T09:13:18.331Z,12.18
2018-03-07T09:15:46.637Z,12.28
2018-03-07T09:18:15.733Z,12.33
2018-03-07T09:20:44.777Z,12.40
2018-03-07T09:23:13.053Z,12.55
2018-03-07T09:25:41.380Z,12.68
2018-03-07T09:28:10.456Z,12.78
2018-03-07T09:30:38.746Z,12.75
2018-03-07T09:33:07.862Z,12.77
2018-03-07T09:35:36.283Z,12.67
2018-03-07T09:38:04.563Z,12.39
2018-03-07T09:40:33.968Z,12.07
2018-03-07T09:43:02.421Z,11.88
2018-03-07T09:45:30.790Z,11.71
2018-03-07T09:47:59.202Z,11.62
2018-03-07T09:50:27.557Z,11.67
2018-03-07T09:52:55.838Z,11.74
2018-03-07T09:55:24.152Z,11.96
2018-03-07T09:57:53.220Z,12.11
2018-03-07T10:00:21.686Z,12.14
2018-03-07T10:02:49.951Z,12.37
2018-03-07T10:05:18.256Z,12.44
2018-03-07T10:07:46.594Z,12.48
2018-03-07T10:10:15.078Z,12.56
2018-03-07T10:12:43.328Z,12.50
2018-03-07T10:15:12.876Z,12.48
2018-03-07T10:17:41.158Z,12.57
2018-03-07T10:20:09.451Z,12.55
2018-03-07T10:22:37.777Z,12.45
2018-03-07T10:25:06.047Z,12.06
2018-03-07T10:27:34.343Z,11.88
2018-03-07T10:30:02.659Z,11.93
2018-03-07T10:32:30.982Z,12.08
2018-03-07T10:34:59.416Z,12.25
2018-03-07T10:37:27.987Z,12.49
2018-03-07T10:39:56.284Z,12.62
2018-03-07T10:42:24.603Z,12.63
2018-03-07T10:44:53.041Z,12.74
2018-03-07T10:47:21.327Z,12.80
2018-03-07T10:49:50.357Z,12.65
2018-03-07T10:52:18.799Z,12.68
2018-03-07T10:54:47.882Z,12.65
2018-03-07T10:57:16.202Z,12.62
2018-03-07T10:59:44.564Z,12.57
2018-03-07T11:02:12.907Z,12.69
2018-03-07T11:04:41.338Z,12.79
2018-03-07T11:09:44.340Z,12.72
2018-03-07T11:12:12.618Z,12.71
2018-03-07T11:14:40.898Z,12.69
2018-03-07T11:17:09.257Z,12.65
2018-03-07T11:19:37.623Z,12.75
2018-03-07T11:22:06.707Z,12.71
2018-03-07T11:24:35.093Z,12.91
2018-03-07T11:27:04.348Z,13.18
2018-03-07T11:29:32.811Z,13.53
2018-03-07T11:32:01.951Z,13.53
2018-03-07T11:34:30.304Z,13.55
2018-03-07T11:36:58.603Z,13.47
2018-03-07T11:39:26.943Z,13.36
2018-03-07T11:41:55.353Z,13.27
2018-03-07T11:44:23.654Z,12.96
2018-03-07T11:46:52.663Z,12.79
2018-03-07T11:49:20.949Z,12.81
2018-03-07T11:51:49.242Z,12.83
2018-03-07T11:54:17.533Z,13.01
2018-03-07T11:56:45.836Z,13.06
2018-03-07T11:59:14.190Z,13.14
2018-03-07T12:01:42.475Z,13.41
2018-03-07T12:04:10.887Z,13.70
2018-03-07T12:06:40.127Z,13.57
2018-03-07T12:09:08.751Z,13.31
2018-03-07T12:11:37.991Z,13.23
2018-03-07T12:14:06.449Z,12.89
2018-03-07T12:16:35.538Z,12.74
2018-03-07T12:19:03.846Z,12.61
2018-03-07T12:21:32.159Z,12.40
2018-03-07T12:24:00.642Z,12.55
2018-03-07T12:26:29.022Z,12.78
2018-03-07T12:28:57.326Z,12.85
2018-03-07T12:31:26.496Z,12.76
2018-03-07T12:33:54.803Z,12.65
2018-03-07T12:36:23.202Z,12.51
2018-03-07T12:38:51.543Z,12.46
2018-03-07T12:41:20.789Z,12.31
2018-03-07T12:43:50.921Z,12.17
2018-03-07T12:46:19.280Z,12.06
2018-03-07T12:48:47.724Z,11.86
2018-03-07T12:51:16.016Z,11.92
2018-03-07T12:53:45.136Z,11.90
2018-03-07T12:56:13.442Z,11.89
2018-03-07T12:58:41.712Z,11.83
2018-03-07T13:01:10.040Z,11.75
2018-03-07T13:03:39.125Z,11.79
2018-03-07T13:06:07.433Z,11.73
2018-03-07T13:08:35.726Z,11.67
2018-03-07T13:11:04.027Z,11.54
2018-03-07T13:13:32.520Z,11.41
2018-03-07T13:16:01.568Z,11.36
2018-03-07T13:18:29.933Z,11.35
2018-03-07T13:20:58.238Z,11.37
2018-03-07T13:23:26.582Z,11.23
2018-03-07T13:25:54.980Z,11.22
2018-03-07T13:28:23.279Z,11.24
2018-03-07T13:30:51.593Z,11.24
2018-03-07T13:33:20.018Z,11.18
2018-03-07T13:35:48.488Z,11.21
2018-03-07T13:38:16.774Z,11.15
2018-03-07T13:40:45.149Z,11.11
2018-03-07T13:43:14.255Z,11.13
2018-03-07T13:45:42.555Z,11.19
2018-03-07T13:48:10.866Z,11.25
2018-03-07T13:50:39.267Z,11.19
2018-03-07T13:53:07.724Z,11.29
2018-03-07T13:55:35.996Z,11.36
2018-03-07T13:58:05.285Z,11.39
2018-03-07T14:00:33.572Z,11.46
2018-03-07T14:03:02.667Z,11.54
2018-03-07T14:05:31.906Z,11.67
2018-03-07T14:08:00.368Z,11.88
2018-03-07T14:10:28.760Z,12.62
2018-03-07T14:12:57.078Z,13.00
2018-03-07T14:15:25.424Z,13.22
2018-03-07T14:17:54.081Z,13.18
2018-03-07T14:20:23.270Z,13.01
2018-03-07T14:22:52.363Z,12.73
2018-03-07T14:25:20.747Z,12.22
2018-03-07T14:27:49.095Z,12.17
2018-03-07T14:30:17.424Z,12.16
2018-03-07T14:32:45.759Z,12.15
2018-03-07T14:35:14.879Z,11.93
2018-03-07T14:37:43.173Z,11.84
2018-03-07T14:40:11.542Z,11.80
2018-03-07T14:42:41.717Z,11.72
2018-03-07T14:45:09.990Z,11.70
2018-03-07T14:47:38.264Z,11.66
2018-03-07T14:50:06.741Z,11.61
2018-03-07T14:52:35.176Z,11.53
2018-03-07T14:55:04.649Z,11.38
2018-03-07T14:57:33.060Z,11.33
2018-03-07T15:00:01.364Z,11.21
2018-03-07T15:02:29.688Z,11.21
2018-03-07T15:04:58.744Z,11.09
2018-03-07T15:07:27.202Z,11.01
2018-03-07T15:09:55.612Z,10.96
2018-03-07T15:12:24.060Z,10.90
2018-03-07T15:14:52.627Z,10.78
2018-03-07T15:17:20.974Z,10.88
2018-03-07T15:19:50.321Z,10.85
2018-03-07T15:22:18.748Z,10.73
2018-03-07T15:24:47.017Z,10.70
2018-03-07T15:27:15.333Z,10.79
2018-03-07T15:29:43.663Z,10.70
2018-03-07T15:32:12.201Z,10.85
2018-03-07T15:34:40.505Z,10.83
2018-03-07T15:37:08.808Z,10.85
2018-03-07T15:39:37.124Z,10.88
2018-03-07T15:42:06.061Z,10.78
2018-03-07T15:44:34.410Z,10.81
2018-03-07T15:47:02.766Z,10.90
2018-03-07T15:49:31.094Z,10.80
2018-03-07T15:51:59.393Z,10.81
2018-03-07T15:54:27.683Z,10.94
2018-03-07T15:56:56.174Z,10.89
2018-03-07T15:59:24.484Z,10.93
2018-03-07T16:01:52.800Z,10.92
2018-03-07T16:04:21.285Z,10.93
2018-03-07T16:06:50.494Z,10.87
2018-03-07T16:09:18.810Z,10.88
2018-03-07T16:11:47.155Z,10.94
2018-03-07T16:14:16.233Z,10.89
2018-03-07T16:16:44.623Z,10.86
2018-03-07T16:19:12.924Z,10.87
2018-03-07T16:21:41.419Z,10.92
2018-03-07T16:24:10.187Z,10.85
2018-03-07T16:26:38.531Z,10.79
2018-03-07T16:29:06.838Z,10.71
2018-03-07T16:31:35.195Z,10.68
2018-03-07T16:34:03.488Z,10.66
2018-03-07T16:36:32.027Z,10.62
2018-03-07T16:39:00.679Z,10.53
2018-03-07T16:41:29.042Z,10.54
2018-03-07T16:43:57.358Z,10.53
2018-03-07T16:46:25.723Z,10.49
2018-03-07T16:48:54.045Z,10.46
2018-03-07T16:51:23.118Z,10.46
2018-03-07T16:53:51.418Z,10.51
2018-03-07T16:56:20.547Z,10.56
2018-03-07T16:58:49.604Z,10.56
2018-03-07T17:01:18.829Z,10.63
2018-03-07T17:03:47.153Z,10.59
2018-03-07T17:06:15.605Z,10.58
2018-03-07T17:08:43.999Z,10.62
2018-03-07T17:11:12.383Z,10.62
2018-03-07T17:13:40.784Z,10.53
2018-03-07T17:16:10.624Z,10.47
2018-03-07T17:18:39.755Z,10.40
2018-03-07T17:21:08.025Z,10.43
2018-03-07T17:23:36.517Z,10.35
2018-03-07T17:26:05.061Z,10.57
2018-03-07T17:28:34.176Z,10.75
2018-03-07T17:31:03.604Z,10.73
2018-03-07T17:33:31.939Z,11.69
2018-03-07T17:36:00.280Z,12.31
2018-03-07T17:38:28.661Z,12.21
2018-03-07T17:40:56.968Z,11.99
2018-03-07T17:43:26.170Z,11.67
2018-03-07T17:45:55.266Z,11.35
2018-03-07T17:48:23.605Z,11.13
2018-03-07T17:50:51.932Z,10.96
2018-03-07T17:53:20.266Z,10.83
2018-03-07T17:55:49.312Z,10.72
2018-03-07T17:58:17.651Z,10.77
2018-03-07T18:00:46.764Z,10.73
2018-03-07T18:03:15.146Z,10.68
2018-03-07T18:05:43.470Z,10.63
2018-03-07T18:08:11.737Z,10.62
2018-03-07T18:10:40.070Z,10.47
2018-03-07T18:13:09.175Z,10.46
2018-03-07T18:15:37.911Z,10.44
2018-03-07T18:18:06.284Z,10.40
2018-03-07T18:20:34.606Z,10.34
2018-03-07T18:23:03.796Z,10.30
2018-03-07T18:25:32.913Z,10.12
2018-03-07T18:28:01.339Z,10.29
2018-03-07T18:30:30.941Z,10.42
2018-03-07T18:32:59.262Z,10.41
2018-03-07T18:35:27.638Z,10.39
2018-03-07T18:37:56.039Z,10.37
2018-03-07T18:40:24.430Z,10.30
2018-03-07T18:42:52.857Z,10.26
2018-03-07T18:45:21.974Z,10.27
2018-03-07T18:47:50.338Z,10.18
2018-03-07T18:50:19.549Z,10.07
2018-03-07T18:52:47.886Z,9.99
2018-03-07T18:55:16.274Z,9.80
2018-03-07T18:57:45.489Z,9.74
2018-03-07T19:00:15.939Z,9.67
2018-03-07T19:02:44.697Z,9.47
2018-03-07T19:05:14.224Z,9.48
2018-03-07T19:07:42.767Z,9.45
2018-03-07T19:10:11.276Z,9.49
2018-03-07T19:12:39.616Z,9.40
2018-03-07T19:15:08.060Z,9.28
2018-03-07T19:17:36.551Z,9.28
2018-03-07T19:20:04.921Z,9.21
2018-03-07T19:22:33.383Z,9.21
2018-03-07T19:25:01.724Z,9.26
2018-03-07T19:27:30.896Z,9.31
2018-03-07T19:29:59.353Z,9.35
2018-03-07T19:32:28.236Z,9.38
2018-03-07T19:34:56.861Z,9.30
2018-03-07T19:37:26.544Z,9.18
2018-03-07T19:39:55.280Z,9.14
2018-03-07T19:42:23.860Z,9.06
2018-03-07T19:44:52.421Z,9.05
2018-03-07T19:47:21.551Z,9.09
2018-03-07T19:49:50.051Z,9.06
2018-03-07T19:52:18.612Z,9.03
2018-03-07T19:54:46.977Z,9.00
2018-03-07T19:57:15.384Z,9.04
2018-03-07T19:59:43.915Z,9.01
2018-03-07T20:02:13.045Z,8.98
2018-03-07T20:04:41.639Z,8.87
2018-03-07T20:07:09.977Z,8.78
2018-03-07T20:09:39.206Z,8.80
2018-03-07T20:12:07.741Z,8.82
2018-03-07T20:14:36.206Z,8.92
2018-03-07T20:17:04.704Z,8.92
2018-03-07T20:19:33.894Z,8.81
2018-03-07T20:22:02.413Z,8.87
2018-03-07T20:24:30.792Z,8.91
2018-03-07T20:26:59.218Z,8.96
2018-03-07T20:29:27.564Z,8.88
2018-03-07T20:31:55.986Z,8.92
2018-03-07T20:34:24.352Z,8.87
2018-03-07T20:36:52.870Z,8.88
2018-03-07T20:39:21.249Z,8.86
2018-03-07T20:41:50.521Z,8.96
2018-03-07T20:44:20.600Z,8.92
2018-03-07T20:46:49.046Z,8.85
2018-03-07T20:49:18.242Z,8.89
2018-03-07T20:51:47.535Z,8.89
2018-03-07T20:54:16.609Z,8.96
2018-03-07T20:56:45.002Z,8.91
2018-03-07T20:59:14.323Z,8.85
2018-03-07T21:01:43.478Z,8.78
2018-03-07T21:04:11.900Z,8.79
2018-03-07T21:06:40.217Z,8.71
2018-03-07T21:09:08.594Z,8.66
2018-03-07T21:11:37.391Z,8.69
2018-03-07T21:14:05.755Z,8.73
2018-03-07T21:16:34.127Z,8.79
2018-03-07T21:19:02.494Z,8.77
2018-03-07T21:21:30.892Z,8.81
2018-03-07T21:23:59.425Z,8.77
2018-03-07T21:26:28.640Z,8.72
2018-03-07T21:28:56.956Z,8.72
2018-03-07T21:31:25.290Z,8.74
2018-03-07T21:33:54.392Z,8.69
2018-03-07T21:36:22.732Z,8.59
2018-03-07T21:38:51.252Z,8.54
2018-03-07T21:41:19.541Z,8.67
2018-03-07T21:43:47.844Z,8.72
2018-03-07T21:46:16.153Z,8.74
2018-03-07T21:48:44.489Z,8.77
2018-03-07T21:51:12.808Z,8.75
2018-03-07T21:53:41.984Z,8.78
2018-03-07T21:56:11.068Z,8.83
2018-03-07T21:58:39.449Z,8.79
2018-03-07T22:01:07.785Z,8.75
2018-03-07T22:03:36.901Z,8.73
2018-03-07T22:06:05.276Z,8.73
2018-03-07T22:08:33.794Z,8.60
2018-03-07T22:11:02.106Z,8.47
2018-03-07T22:13:31.325Z,8.26
2018-03-07T22:15:59.650Z,7.85
2018-03-07T22:18:27.962Z,7.76
2018-03-07T22:20:57.011Z,7.77
2018-03-07T22:23:25.330Z,7.85
2018-03-07T22:25:55.482Z,7.56
2018-03-07T22:28:23.751Z,7.66
2018-03-07T22:30:52.076Z,7.72
2018-03-07T22:33:20.522Z,7.58
2018-03-07T22:35:49.118Z,7.50
2018-03-07T22:38:17.607Z,7.19
2018-03-07T22:40:45.865Z,7.18
2018-03-07T22:43:14.142Z,7.16
2018-03-07T22:45:42.460Z,7.11
2018-03-07T22:48:10.771Z,7.04
2018-03-07T22:50:39.082Z,7.00
2018-03-07T22:53:07.437Z,7.01
2018-03-07T22:55:35.938Z,6.95
2018-03-07T22:58:04.446Z,6.97
2018-03-07T23:00:38.530Z,6.87
2018-03-07T23:03:06.860Z,6.75
2018-03-07T23:05:36.095Z,6.88
2018-03-07T23:08:04.606Z,6.98
2018-03-07T23:10:32.862Z,6.88
2018-03-07T23:13:01.240Z,6.71
2018-03-07T23:15:29.675Z,6.77
2018-03-07T23:17:58.150Z,6.79
2018-03-07T23:20:26.581Z,6.77
2018-03-07T23:22:54.964Z,6.59
2018-03-07T23:25:23.446Z,6.62
2018-03-07T23:27:51.915Z,6.64
2018-03-07T23:30:20.211Z,6.60
2018-03-07T23:32:48.482Z,6.59
2018-03-07T23:35:16.923Z,6.67
2018-03-07T23:37:45.353Z,6.72
2018-03-07T23:40:15.406Z,6.74
2018-03-07T23:42:44.434Z,6.69
2018-03-07T23:45:12.938Z,6.73
2018-03-07T23:47:41.225Z,6.54
2018-03-07T23:50:09.538Z,6.52
2018-03-07T23:52:37.825Z,6.47
2018-03-07T23:55:06.100Z,6.50
2018-03-07T23:57:34.407Z,6.43
